createdAt,value
2023-01-30T00:02:02.290Z,101740.41
2023-01-30T00:04:35.025Z,101723.22
2023-01-30T00:07:07.953Z,101726.25
2023-01-30T00:09:41.216Z,101721.34
2023-01-30T00:12:15.585Z,101713.47
2023-01-30T00:14:48.443Z,101718.28
2023-01-30T00:17:21.513Z,101718.00
2023-01-30T00:19:54.216Z,101723.75
2023-01-30T00:22:27.325Z,101718.28
2023-01-30T00:25:00.092Z,101713.91
2023-01-30T00:27:34.309Z,101713.09
2023-01-30T00:30:12.999Z,101706.22
2023-01-30T00:32:45.898Z,101705.09
2023-01-30T00:35:18.526Z,101703.34
2023-01-30T00:37:51.373Z,101703.69
2023-01-30T00:40:24.258Z,101702.88
2023-01-30T00:43:15.939Z,101687.16
2023-01-30T00:46:07.350Z,101672.19
2023-01-30T00:48:40.363Z,101680.56
2023-01-30T00:51:13.306Z,101687.63
2023-01-30T00:53:45.937Z,101666.72
2023-01-30T00:56:20.079Z,101664.97
2023-01-30T00:58:54.326Z,101671.84
2023-01-30T01:01:27.119Z,101663.66
2023-01-30T01:04:00.636Z,101637.13
2023-01-30T01:06:33.755Z,101621.63
2023-01-30T01:09:06.996Z,101607.19
2023-01-30T01:11:39.888Z,101597.66
2023-01-30T01:14:14.031Z,101627.25
2023-01-30T01:16:47.313Z,101631.41
2023-01-30T01:19:20.304Z,101622.19
2023-01-30T01:21:53.202Z,101615.94
2023-01-30T01:24:25.933Z,101618.59
2023-01-30T01:26:59.633Z,101617.94
2023-01-30T01:29:33.994Z,101620.47
2023-01-30T01:32:06.897Z,101614.72
2023-01-30T01:34:39.647Z,101616.97
2023-01-30T01:37:12.886Z,101613.78
2023-01-30T01:39:59.941Z,101618.13
2023-01-30T01:42:37.193Z,101629.84
2023-01-30T01:45:21.481Z,101625.19
2023-01-30T01:48:01.849Z,101625.88
2023-01-30T01:50:42.154Z,101644.03
2023-01-30T01:53:18.827Z,101630.25
2023-01-30T01:55:55.148Z,101625.78
2023-01-30T01:58:32.574Z,101625.41
2023-01-30T02:01:08.152Z,101619.44
2023-01-30T02:03:45.532Z,101619.25
2023-01-30T02:06:19.926Z,101621.88
2023-01-30T02:08:56.955Z,101623.13
2023-01-30T02:11:34.548Z,101619.44
2023-01-30T02:14:09.280Z,101630.53
2023-01-30T02:16:46.800Z,101612.88
2023-01-30T02:19:26.938Z,101641.31
2023-01-30T02:22:17.998Z,101624.25
2023-01-30T02:25:25.012Z,101611.06
2023-01-30T02:28:29.769Z,101606.53
2023-01-30T02:31:19.735Z,101597.19
2023-01-30T02:34:01.892Z,101610.88
2023-01-30T02:36:47.761Z,101603.47
2023-01-30T02:39:30.934Z,101609.13
2023-01-30T02:42:13.045Z,101592.13
2023-01-30T02:44:54.504Z,101608.75
2023-01-30T02:47:34.776Z,101608.22
2023-01-30T02:50:21.686Z,101596.88
2023-01-30T02:52:55.307Z,101601.53
2023-01-30T02:55:30.240Z,101592.72
2023-01-30T02:58:05.729Z,101598.72
2023-01-30T03:01:00.139Z,101599.94
2023-01-30T03:03:50.983Z,101606.72
2023-01-30T03:06:39.675Z,101610.69
2023-01-30T03:09:17.674Z,101603.53
2023-01-30T03:12:00.272Z,101605.31
2023-01-30T03:14:40.844Z,101612.38
2023-01-30T03:17:15.682Z,101599.06
2023-01-30T03:19:50.099Z,101607.59
2023-01-30T03:22:23.800Z,101601.09
2023-01-30T03:24:56.641Z,101606.44
2023-01-30T03:27:29.820Z,101603.56
2023-01-30T03:30:03.186Z,101609.78
2023-01-30T03:32:36.072Z,101609.53
2023-01-30T03:35:11.696Z,101612.81
2023-01-30T03:37:45.065Z,101599.16
2023-01-30T03:40:20.253Z,101592.25
2023-01-30T03:42:53.174Z,101604.25
2023-01-30T03:45:26.691Z,101602.84
2023-01-30T03:47:59.525Z,101609.78
2023-01-30T03:50:33.644Z,101600.31
2023-01-30T03:53:06.951Z,101593.78
2023-01-30T03:55:40.510Z,101593.78
2023-01-30T03:58:13.262Z,101595.63
2023-01-30T04:00:46.172Z,101604.06
2023-01-30T04:03:18.855Z,101602.31
2023-01-30T04:05:52.951Z,101592.78
2023-01-30T04:08:26.061Z,101597.91
2023-01-30T04:10:59.120Z,101591.06
2023-01-30T04:13:31.927Z,101586.47
2023-01-30T04:16:19.739Z,101589.00
2023-01-30T04:19:11.307Z,101604.31
2023-01-30T04:21:46.394Z,101608.38
2023-01-30T04:24:19.373Z,101629.31
2023-01-30T04:26:52.066Z,101623.50
2023-01-30T04:29:25.189Z,101619.50
2023-01-30T04:31:59.391Z,101603.81
2023-01-30T04:34:36.085Z,101603.56
2023-01-30T04:37:11.280Z,101610.81
2023-01-30T04:39:44.779Z,101616.00
2023-01-30T04:42:17.987Z,101626.28
2023-01-30T04:45:09.082Z,101626.88
2023-01-30T04:47:44.311Z,101623.41
2023-01-30T04:50:17.579Z,101624.47
2023-01-30T04:52:52.210Z,101638.53
2023-01-30T04:55:25.201Z,101646.31
2023-01-30T04:57:58.978Z,101644.53
2023-01-30T05:00:31.884Z,101657.84
2023-01-30T05:03:07.222Z,101653.97
2023-01-30T05:05:40.018Z,101654.66
2023-01-30T05:08:16.659Z,101646.84
2023-01-30T05:10:49.581Z,101642.13
2023-01-30T05:13:22.398Z,101645.31
2023-01-30T05:15:55.326Z,101647.00
2023-01-30T05:18:28.049Z,101646.84
2023-01-30T05:21:08.906Z,101652.56
2023-01-30T05:23:43.237Z,101646.66
2023-01-30T05:26:16.809Z,101636.84
2023-01-30T05:28:52.964Z,101638.59
2023-01-30T05:31:26.394Z,101638.13
2023-01-30T05:33:59.371Z,101639.72
2023-01-30T05:36:32.021Z,101638.78
2023-01-30T05:39:06.192Z,101649.22
2023-01-30T05:41:39.120Z,101653.69
2023-01-30T05:44:12.674Z,101668.50
2023-01-30T05:46:45.496Z,101666.69
2023-01-30T05:49:18.520Z,101656.09
2023-01-30T05:51:51.741Z,101661.75
2023-01-30T05:54:26.045Z,101655.38
2023-01-30T05:56:58.803Z,101669.59
2023-01-30T05:59:31.687Z,101664.53
2023-01-30T06:02:04.594Z,101658.13
2023-01-30T06:04:37.472Z,101654.13
2023-01-30T06:07:10.458Z,101659.88
2023-01-30T06:09:44.513Z,101665.31
2023-01-30T06:12:17.656Z,101674.50
2023-01-30T06:14:50.508Z,101673.00
2023-01-30T06:17:23.436Z,101677.28
2023-01-30T06:19:56.177Z,101660.09
2023-01-30T06:22:29.287Z,101671.69
2023-01-30T06:25:03.843Z,101674.47
2023-01-30T06:27:36.903Z,101667.63
2023-01-30T06:30:10.446Z,101672.38
2023-01-30T06:32:43.481Z,101673.34
2023-01-30T06:35:16.758Z,101667.56
2023-01-30T06:37:49.952Z,101675.75
2023-01-30T06:40:27.156Z,101673.06
2023-01-30T06:43:00.341Z,101661.00
2023-01-30T06:45:34.910Z,101664.56
2023-01-30T06:48:08.374Z,101680.91
2023-01-30T06:50:41.552Z,101675.31
2023-01-30T06:53:14.683Z,101672.75
2023-01-30T06:55:49.174Z,101680.09
2023-01-30T06:58:25.463Z,101680.00
2023-01-30T07:01:02.097Z,101689.44
2023-01-30T07:03:35.295Z,101700.34
2023-01-30T07:06:08.483Z,101705.66
2023-01-30T07:08:41.874Z,101705.66
2023-01-30T07:11:16.551Z,101706.28
2023-01-30T07:13:49.870Z,101714.31
2023-01-30T07:16:28.782Z,101717.50
2023-01-30T07:19:03.164Z,101717.84
2023-01-30T07:21:36.068Z,101726.81
2023-01-30T07:24:10.943Z,101734.19
2023-01-30T07:26:45.234Z,101721.72
2023-01-30T07:29:18.272Z,101723.16
2023-01-30T07:31:52.354Z,101730.03
2023-01-30T07:34:25.306Z,101726.66
2023-01-30T07:36:58.355Z,101734.84
2023-01-30T07:39:31.290Z,101725.88
2023-01-30T07:42:05.925Z,101733.44
2023-01-30T07:44:38.912Z,101719.47
2023-01-30T07:47:11.491Z,101721.72
2023-01-30T07:49:44.397Z,101720.59
2023-01-30T07:52:17.134Z,101722.69
2023-01-30T07:54:49.871Z,101723.19
2023-01-30T07:57:24.061Z,101729.25
2023-01-30T07:59:56.926Z,101736.63
2023-01-30T08:02:32.733Z,101742.09
2023-01-30T08:05:06.693Z,101757.81
2023-01-30T08:07:39.663Z,101765.81
2023-01-30T08:10:14.289Z,101775.94
2023-01-30T08:12:51.215Z,101759.41
2023-01-30T08:15:24.076Z,101758.28
2023-01-30T08:17:57.992Z,101752.84
2023-01-30T08:20:30.946Z,101757.47
2023-01-30T08:23:03.764Z,101756.53
2023-01-30T08:25:38.232Z,101768.84
2023-01-30T08:28:12.519Z,101762.78
2023-01-30T08:30:47.412Z,101759.75
2023-01-30T08:33:20.511Z,101772.22
2023-01-30T08:35:53.343Z,101777.84
2023-01-30T08:38:26.199Z,101779.91
2023-01-30T08:41:00.918Z,101784.41
2023-01-30T08:43:37.427Z,101799.00
2023-01-30T08:46:10.310Z,101807.81
2023-01-30T08:48:49.859Z,101798.22
2023-01-30T08:51:23.227Z,101808.13
2023-01-30T08:53:56.128Z,101806.72
2023-01-30T08:56:29.075Z,101804.78
2023-01-30T08:59:03.326Z,101807.38
2023-01-30T09:01:38.194Z,101815.34
2023-01-30T09:04:11.252Z,101815.88
2023-01-30T09:06:44.116Z,101824.53
2023-01-30T09:09:19.865Z,101832.22
2023-01-30T09:11:53.636Z,101829.16
2023-01-30T09:14:29.744Z,101834.78
2023-01-30T09:17:02.745Z,101846.31
2023-01-30T09:19:37.147Z,101840.25
2023-01-30T09:22:10.290Z,101842.00
2023-01-30T09:24:43.287Z,101835.59
2023-01-30T09:27:16.014Z,101833.31
2023-01-30T09:29:50.459Z,101844.22
2023-01-30T09:32:23.423Z,101853.88
2023-01-30T09:34:56.301Z,101853.09
2023-01-30T09:37:29.277Z,101862.88
2023-01-30T09:40:02.267Z,101861.06
2023-01-30T09:42:51.801Z,101867.03
2023-01-30T09:45:44.629Z,101870.25
2023-01-30T09:48:25.571Z,101876.63
2023-01-30T09:51:19.604Z,101878.53
2023-01-30T09:54:16.271Z,101877.13
2023-01-30T09:56:56.657Z,101894.44
2023-01-30T09:59:36.466Z,101895.53
2023-01-30T10:02:28.433Z,101905.34
2023-01-30T10:05:03.037Z,101911.28
2023-01-30T10:07:48.740Z,101919.63
2023-01-30T10:10:30.490Z,101927.00
2023-01-30T10:13:15.604Z,101924.94
2023-01-30T10:15:56.071Z,101936.50
2023-01-30T10:18:46.917Z,101926.38
2023-01-30T10:21:31.120Z,101929.41
2023-01-30T10:24:20.151Z,101932.13
2023-01-30T10:26:54.054Z,101942.41
2023-01-30T10:29:32.741Z,101932.28
2023-01-30T10:32:11.255Z,101945.28
2023-01-30T10:34:50.517Z,101942.03
2023-01-30T10:37:27.709Z,101950.41
2023-01-30T10:40:06.937Z,101940.28
2023-01-30T10:42:46.485Z,101943.75
2023-01-30T10:45:24.447Z,101945.88
2023-01-30T10:48:19.912Z,101953.56
2023-01-30T10:51:13.718Z,101948.13
2023-01-30T10:53:51.681Z,101958.53
2023-01-30T10:56:35.336Z,101953.53
2023-01-30T10:59:22.336Z,101960.13
2023-01-30T11:02:03.922Z,101967.19
2023-01-30T11:04:43.648Z,101970.22
2023-01-30T11:07:18.121Z,101971.81
2023-01-30T11:09:51.164Z,101961.06
2023-01-30T11:12:26.441Z,101966.38
2023-01-30T11:15:01.312Z,101964.09
2023-01-30T11:17:36.826Z,101967.28
2023-01-30T11:20:15.819Z,101961.31
2023-01-30T11:22:52.546Z,101964.56
2023-01-30T11:25:25.455Z,101961.78
2023-01-30T11:28:03.406Z,101965.94
2023-01-30T11:30:37.743Z,101958.59
2023-01-30T11:33:15.487Z,101956.09
2023-01-30T11:35:55.791Z,101961.84
2023-01-30T11:38:33.392Z,101963.72
2023-01-30T11:41:22.966Z,101966.72
2023-01-30T11:44:01.955Z,101951.94
2023-01-30T11:46:37.889Z,101971.78
2023-01-30T11:49:46.729Z,101966.84
2023-01-30T11:52:09.416Z,101959.34
2023-01-30T11:54:46.180Z,101958.28
2023-01-30T11:57:21.220Z,101972.25
2023-01-30T11:59:57.788Z,101969.97
2023-01-30T12:02:36.339Z,101973.03
2023-01-30T12:05:25.070Z,101971.16
2023-01-30T12:08:22.415Z,101966.94
2023-01-30T12:11:02.405Z,101973.91
2023-01-30T12:13:39.366Z,101974.34
2023-01-30T12:16:20.324Z,101974.34
2023-01-30T12:19:00.663Z,101977.09
2023-01-30T12:21:45.206Z,101972.41
2023-01-30T12:24:27.117Z,101990.13
2023-01-30T12:27:06.080Z,101968.22
2023-01-30T12:29:59.478Z,101971.50
2023-01-30T12:32:33.641Z,101971.84
2023-01-30T12:35:16.763Z,101978.78
2023-01-30T12:38:04.680Z,101972.03
2023-01-30T12:40:51.858Z,101977.97
2023-01-30T12:43:40.695Z,101979.25
2023-01-30T12:46:34.687Z,101988.47
2023-01-30T12:49:36.482Z,101983.25
2023-01-30T12:52:28.118Z,101994.22
2023-01-30T12:55:12.224Z,101987.78
2023-01-30T12:57:51.602Z,101984.00
2023-01-30T13:00:45.209Z,101984.94
2023-01-30T13:03:27.956Z,101988.06
2023-01-30T13:06:10.077Z,101987.50
2023-01-30T13:09:09.463Z,101992.09
2023-01-30T13:11:51.631Z,102000.38
2023-01-30T13:14:33.593Z,102001.81
2023-01-30T13:17:23.227Z,101997.69
2023-01-30T13:20:01.824Z,102000.63
2023-01-30T13:22:42.378Z,102004.88
2023-01-30T13:25:23.922Z,101991.19
2023-01-30T13:28:03.467Z,102000.53
2023-01-30T13:30:37.963Z,102008.63
2023-01-30T13:33:16.103Z,102008.47
2023-01-30T13:35:53.875Z,102011.56
2023-01-30T13:38:28.229Z,102022.34
2023-01-30T13:41:03.750Z,102019.13
2023-01-30T13:43:39.659Z,102029.91
2023-01-30T13:46:20.288Z,102037.94
2023-01-30T13:49:06.901Z,102042.63
2023-01-30T13:51:48.025Z,102047.28
2023-01-30T13:54:32.848Z,102049.56
2023-01-30T13:57:19.490Z,102061.81
2023-01-30T14:00:34.262Z,102061.81
2023-01-30T14:03:32.133Z,102060.69
2023-01-30T14:06:16.006Z,102071.50
2023-01-30T14:08:54.981Z,102068.56
2023-01-30T14:11:33.995Z,102060.22
2023-01-30T14:14:24.466Z,102079.03
2023-01-30T14:16:59.279Z,102076.97
2023-01-30T14:19:39.565Z,102085.81
2023-01-30T14:22:26.663Z,102087.25
2023-01-30T14:25:41.232Z,102094.19
2023-01-30T14:28:47.909Z,102100.97
2023-01-30T14:31:54.996Z,102113.03
2023-01-30T14:35:17.000Z,102117.38
2023-01-30T14:38:16.381Z,102124.28
2023-01-30T14:41:17.356Z,102117.22
2023-01-30T14:43:53.635Z,102121.41
2023-01-30T14:46:54.759Z,102137.19
2023-01-30T14:49:33.043Z,102143.78
2023-01-30T14:52:06.633Z,102155.53
2023-01-30T14:54:45.553Z,102162.13
2023-01-30T14:57:23.272Z,102168.72
2023-01-30T15:00:14.868Z,102168.72
2023-01-30T15:02:52.331Z,102174.66
2023-01-30T15:05:32.982Z,102178.22
2023-01-30T15:08:10.282Z,102184.31
2023-01-30T15:11:06.311Z,102186.91
2023-01-30T15:13:48.177Z,102184.47
2023-01-30T15:16:37.557Z,102198.00
2023-01-30T15:19:24.844Z,102185.16
2023-01-30T15:22:11.472Z,102198.78
2023-01-30T15:25:12.719Z,102185.44
2023-01-30T15:28:01.387Z,102201.72
2023-01-30T15:30:49.661Z,102192.84
2023-01-30T15:33:31.008Z,102197.84
2023-01-30T15:36:19.988Z,102207.50
2023-01-30T15:39:01.500Z,102218.72
2023-01-30T15:41:42.607Z,102224.19
2023-01-30T15:44:40.652Z,102227.75
2023-01-30T15:47:26.379Z,102234.19
2023-01-30T15:50:02.971Z,102243.03
2023-01-30T15:52:44.962Z,102242.53
2023-01-30T15:55:20.908Z,102236.44
2023-01-30T15:57:57.727Z,102234.03
2023-01-30T16:00:36.289Z,102249.78
2023-01-30T16:03:14.443Z,102236.91
2023-01-30T16:05:48.617Z,102253.97
2023-01-30T16:08:24.705Z,102251.06
2023-01-30T16:10:58.068Z,102255.38
2023-01-30T16:13:33.284Z,102258.13
2023-01-30T16:16:12.866Z,102270.84
2023-01-30T16:18:50.516Z,102271.63
2023-01-30T16:21:29.056Z,102270.34
2023-01-30T16:24:04.911Z,102266.66
2023-01-30T16:26:42.136Z,102269.53
2023-01-30T16:29:38.960Z,102272.56
2023-01-30T16:32:15.385Z,102278.84
2023-01-30T16:34:48.239Z,102285.91
2023-01-30T16:37:25.654Z,102284.31
2023-01-30T16:40:06.007Z,102293.63
2023-01-30T16:42:41.404Z,102294.44
2023-01-30T16:45:50.504Z,102307.63
2023-01-30T16:48:31.933Z,102307.78
2023-01-30T16:51:21.370Z,102304.09
2023-01-30T16:53:59.387Z,102317.56
2023-01-30T16:56:35.756Z,102309.22
2023-01-30T16:59:19.916Z,102317.75
2023-01-30T17:01:55.275Z,102316.13
2023-01-30T17:04:32.093Z,102316.41
2023-01-30T17:07:05.862Z,102321.41
2023-01-30T17:09:43.008Z,102332.34
2023-01-30T17:12:37.056Z,102330.56
2023-01-30T17:15:33.035Z,102337.81
2023-01-30T17:18:07.447Z,102343.41
2023-01-30T17:20:47.669Z,102349.69
2023-01-30T17:23:22.782Z,102356.47
2023-01-30T17:25:55.556Z,102362.19
2023-01-30T17:28:28.310Z,102373.91
2023-01-30T17:31:01.214Z,102381.75
2023-01-30T17:33:34.099Z,102388.53
2023-01-30T17:36:19.260Z,102381.63
2023-01-30T17:38:52.723Z,102381.00
2023-01-30T17:41:29.229Z,102377.59
2023-01-30T17:44:02.189Z,102385.16
2023-01-30T17:46:36.627Z,102387.72
2023-01-30T17:49:15.693Z,102389.34
2023-01-30T17:51:50.647Z,102389.34
2023-01-30T17:54:30.185Z,102397.22
2023-01-30T17:57:05.847Z,102394.59
2023-01-30T17:59:38.964Z,102402.31
2023-01-30T18:02:11.829Z,102397.19
2023-01-30T18:04:44.596Z,102399.09
2023-01-30T18:07:19.947Z,102400.03
2023-01-30T18:09:52.792Z,102392.28
2023-01-30T18:12:25.679Z,102399.19
2023-01-30T18:15:00.058Z,102394.84
2023-01-30T18:17:33.473Z,102407.06
2023-01-30T18:20:06.896Z,102419.91
2023-01-30T18:22:41.410Z,102418.63
2023-01-30T18:25:14.880Z,102420.41
2023-01-30T18:27:48.456Z,102427.72
2023-01-30T18:30:24.401Z,102428.38
2023-01-30T18:32:57.451Z,102423.88
2023-01-30T18:35:30.127Z,102435.44
2023-01-30T18:38:04.316Z,102437.31
2023-01-30T18:40:38.833Z,102439.53
2023-01-30T18:43:11.614Z,102436.47
2023-01-30T18:45:44.601Z,102444.31
2023-01-30T18:48:17.157Z,102451.50
2023-01-30T18:50:49.977Z,102452.38
2023-01-30T18:53:24.115Z,102464.66
2023-01-30T18:55:56.886Z,102472.66
2023-01-30T18:58:31.129Z,102477.19
2023-01-30T19:01:10.366Z,102475.16
2023-01-30T19:03:43.900Z,102477.34
2023-01-30T19:06:19.232Z,102480.72
2023-01-30T19:08:54.027Z,102482.66
2023-01-30T19:11:44.548Z,102485.69
2023-01-30T19:14:17.444Z,102492.44
2023-01-30T19:16:51.245Z,102502.34
2023-01-30T19:19:25.029Z,102500.44
2023-01-30T19:21:58.114Z,102507.31
2023-01-30T19:24:32.400Z,102499.44
2023-01-30T19:27:07.524Z,102509.34
2023-01-30T19:29:41.386Z,102501.97
2023-01-30T19:32:14.071Z,102496.22
2023-01-30T19:34:47.254Z,102485.91
2023-01-30T19:37:21.185Z,102496.31
2023-01-30T19:39:55.181Z,102497.44
2023-01-30T19:42:27.901Z,102492.16
2023-01-30T19:45:01.074Z,102495.84
2023-01-30T19:47:34.357Z,102502.41
2023-01-30T19:50:08.658Z,102503.50
2023-01-30T19:52:42.018Z,102496.44
2023-01-30T19:55:22.249Z,102500.28
2023-01-30T19:58:03.006Z,102497.06
2023-01-30T20:01:01.612Z,102498.66
2023-01-30T20:03:44.193Z,102509.59
2023-01-30T20:06:21.037Z,102501.72
2023-01-30T20:08:58.256Z,102505.56
2023-01-30T20:11:35.110Z,102502.31
2023-01-30T20:14:11.862Z,102514.34
2023-01-30T20:16:45.467Z,102515.66
2023-01-30T20:19:21.759Z,102519.47
2023-01-30T20:21:56.110Z,102523.25
2023-01-30T20:24:29.164Z,102525.16
2023-01-30T20:27:04.132Z,102531.44
2023-01-30T20:29:37.200Z,102526.78
2023-01-30T20:32:10.162Z,102531.53
2023-01-30T20:34:43.127Z,102521.22
2023-01-30T20:37:17.378Z,102522.81
2023-01-30T20:39:51.066Z,102521.13
2023-01-30T20:42:25.527Z,102517.78
2023-01-30T20:45:03.467Z,102511.63
2023-01-30T20:47:46.504Z,102506.75
2023-01-30T20:50:19.890Z,102512.22
2023-01-30T20:52:52.914Z,102511.00
2023-01-30T20:55:25.743Z,102513.94
2023-01-30T20:58:00.047Z,102507.78
2023-01-30T21:00:35.055Z,102505.34
2023-01-30T21:03:07.986Z,102504.44
2023-01-30T21:05:40.699Z,102513.03
2023-01-30T21:08:13.519Z,102504.44
2023-01-30T21:10:47.151Z,102506.06
2023-01-30T21:13:21.736Z,102507.00
2023-01-30T21:16:01.939Z,102507.41
2023-01-30T21:18:36.971Z,102502.44
2023-01-30T21:21:15.727Z,102507.78
2023-01-30T21:23:49.592Z,102504.44
2023-01-30T21:26:31.878Z,102499.63
2023-01-30T21:29:08.400Z,102502.13
2023-01-30T21:31:41.770Z,102512.22
2023-01-30T21:34:15.093Z,102511.81
2023-01-30T21:37:07.810Z,102509.59
2023-01-30T21:39:58.890Z,102514.84
2023-01-30T21:42:49.476Z,102521.19
2023-01-30T21:45:23.604Z,102506.09
2023-01-30T21:47:56.833Z,102518.38
2023-01-30T21:50:29.585Z,102521.09
2023-01-30T21:53:02.782Z,102520.09
2023-01-30T21:55:35.703Z,102527.88
2023-01-30T21:58:08.537Z,102526.44
2023-01-30T22:00:42.593Z,102525.84
2023-01-30T22:03:17.744Z,102513.22
2023-01-30T22:05:50.690Z,102503.94
2023-01-30T22:08:25.667Z,102511.78
2023-01-30T22:11:06.295Z,102515.59
2023-01-30T22:13:41.040Z,102516.53
2023-01-30T22:16:17.406Z,102510.38
2023-01-30T22:18:53.402Z,102507.00
2023-01-30T22:21:28.065Z,102510.25
2023-01-30T22:24:03.059Z,102505.31
2023-01-30T22:26:36.700Z,102501.97
2023-01-30T22:29:10.558Z,102486.34
2023-01-30T22:31:45.172Z,102483.34
2023-01-30T22:34:18.136Z,102476.66
2023-01-30T22:36:51.832Z,102480.19
2023-01-30T22:39:25.091Z,102470.38
2023-01-30T22:41:57.843Z,102479.16
2023-01-30T22:44:30.593Z,102469.38
2023-01-30T22:59:08.080Z,102478.63
2023-01-30T23:11:08.202Z,102459.34
2023-01-30T23:13:42.432Z,102460.44
